Time;durP1;ratioP1;P1;durP2;ratioP2;P2;SDS_P1;SDS_P2;PMS_P1;PMS_P2;Temp;Humidity;BMP_temperature;BMP_pressure;BME280_temperature;BME280_humidity;BME280_pressure;Samples;Min_cycle;Max_cycle;Signal;HPM_P1;HPM_P2
2022/08/11 00:01:39;;;;;;;1.30;1.20;;;28.80;27.50;;;;;;5106504;27;45282;-72
2022/08/11 00:04:06;;;;;;;4.05;1.10;;;28.80;27.50;;;;;;5105967;27;45234;-71
2022/08/11 00:06:33;;;;;;;0.90;0.90;;;28.80;27.60;;;;;;5106156;27;45153;-70
2022/08/11 00:09:00;;;;;;;1.50;0.98;;;28.70;27.60;;;;;;5107650;27;45191;-70
2022/08/11 00:11:32;;;;;;;1.10;1.10;;;28.70;27.60;;;;;;5109656;27;45224;-70
2022/08/11 00:14:00;;;;;;;2.10;1.00;;;28.70;27.60;;;;;;5109216;27;45741;-71
2022/08/11 00:16:27;;;;;;;0.95;0.95;;;28.70;27.60;;;;;;5109642;27;45339;-71
2022/08/11 00:18:55;;;;;;;1.17;1.00;;;28.60;27.60;;;;;;5109829;27;45296;-71
2022/08/11 00:21:22;;;;;;;1.00;0.90;;;28.60;27.60;;;;;;5109693;27;45210;-71
2022/08/11 00:23:53;;;;;;;1.00;0.95;;;28.60;27.70;;;;;;5109379;27;46359;-71
2022/08/11 00:26:20;;;;;;;1.33;1.17;;;28.60;27.60;;;;;;5109644;27;45320;-71
2022/08/11 00:28:47;;;;;;;0.90;0.90;;;28.60;27.70;;;;;;5109706;27;45131;-70
2022/08/11 00:31:23;;;;;;;0.90;0.90;;;28.60;27.70;;;;;;5128836;27;45216;-70
2022/08/11 00:33:50;;;;;;;2.38;1.20;;;28.50;27.70;;;;;;5130031;27;46893;-70
2022/08/11 00:36:17;;;;;;;2.75;0.90;;;28.50;27.70;;;;;;5129711;27;45277;-71
2022/08/11 00:38:45;;;;;;;0.90;0.90;;;28.50;27.70;;;;;;5130092;27;45255;-71
2022/08/11 00:41:18;;;;;;;1.15;0.90;;;28.50;27.80;;;;;;5130064;27;45114;-71
2022/08/11 00:44:01;;;;;;;0.90;0.90;;;28.50;27.90;;;;;;5129854;27;47402;-71
2022/08/11 00:46:35;;;;;;;1.17;1.08;;;28.40;27.80;;;;;;5129725;27;45326;-70
2022/08/11 00:49:13;;;;;;;2.60;1.05;;;28.40;27.90;;;;;;5129912;27;45247;-70
2022/08/11 00:51:50;;;;;;;1.08;0.80;;;28.40;27.90;;;;;;5122050;27;45332;-70
2022/08/11 00:54:32;;;;;;;1.10;1.10;;;28.40;28.00;;;;;;5108724;27;46193;-70
2022/08/11 00:57:18;;;;;;;1.00;1.00;;;28.40;28.00;;;;;;5106207;27;45317;-70
2022/08/11 01:00:09;;;;;;;1.05;1.00;;;28.30;28.00;;;;;;5109185;27;45283;-70
2022/08/11 01:02:51;;;;;;;1.10;1.00;;;28.30;28.00;;;;;;5109261;27;45244;-70
2022/08/11 01:05:50;;;;;;;2.10;1.00;;;28.30;28.00;;;;;;5108805;27;46367;-70
2022/08/11 01:08:46;;;;;;;1.45;1.00;;;28.20;28.00;;;;;;5109014;27;45401;-70
2022/08/11 01:11:48;;;;;;;1.25;1.15;;;28.20;28.00;;;;;;5109011;27;45240;-70
2022/08/11 01:14:43;;;;;;;1.23;1.13;;;28.20;28.10;;;;;;5108923;27;45340;-70
2022/08/11 01:17:36;;;;;;;1.58;1.20;;;28.20;28.10;;;;;;5108656;27;46631;-70
2022/08/11 01:20:15;;;;;;;0.95;0.95;;;28.10;28.20;;;;;;5108074;27;45175;-70
2022/08/11 01:23:19;;;;;;;1.20;1.10;;;28.10;28.20;;;;;;5108746;27;45459;-70
2022/08/11 01:26:00;;;;;;;0.82;0.82;;;28.10;28.20;;;;;;5109024;27;45572;-70
2022/08/11 01:29:02;;;;;;;1.35;1.25;;;28.10;28.30;;;;;;5108538;27;46621;-70
2022/08/11 01:32:04;;;;;;;0.98;0.98;;;28.00;28.20;;;;;;5090173;27;45349;-70
2022/08/11 01:34:50;;;;;;;1.58;1.10;;;27.90;28.30;;;;;;5108616;27;45242;-71
2022/08/11 01:37:39;;;;;;;1.20;1.10;;;27.90;28.30;;;;;;5108651;27;45236;-71
2022/08/11 01:40:37;;;;;;;1.05;1.05;;;27.90;28.30;;;;;;5108404;27;46309;-70
2022/08/11 01:46:28;;;;;;;1.20;1.10;;;27.90;28.50;;;;;;5078144;27;45368;-70
2022/08/11 01:49:01;;;;;;;1.10;1.00;;;27.90;28.50;;;;;;5108582;27;45118;-70
2022/08/11 01:51:35;;;;;;;2.10;1.10;;;27.80;28.40;;;;;;5113982;27;46721;-70
2022/08/11 01:54:04;;;;;;;1.13;1.02;;;27.80;28.50;;;;;;5128913;27;45240;-70
2022/08/11 01:56:55;;;;;;;1.50;1.17;;;27.80;28.50;;;;;;5128980;27;45274;-70
2022/08/11 01:59:24;;;;;;;1.20;1.20;;;27.70;28.50;;;;;;5129075;27;45183;-70
2022/08/11 02:02:02;;;;;;;1.27;1.17;;;27.70;28.50;;;;;;5128454;27;46444;-70
2022/08/11 02:04:31;;;;;;;1.10;1.10;;;27.70;28.50;;;;;;5128627;27;45216;-70
2022/08/11 02:07:03;;;;;;;0.80;0.80;;;27.70;28.60;;;;;;5128954;27;45132;-71
2022/08/11 02:09:51;;;;;;;0.80;0.80;;;27.70;28.60;;;;;;5128842;27;45246;-70
2022/08/11 02:12:25;;;;;;;0.93;0.93;;;27.70;28.60;;;;;;5128524;27;45405;-71
2022/08/11 02:14:57;;;;;;;1.25;1.15;;;27.60;28.60;;;;;;5128389;27;45448;-71
2022/08/11 02:17:39;;;;;;;2.42;1.02;;;27.60;28.60;;;;;;5128497;27;45332;-71
2022/08/11 02:25:53;;;;;;;1.38;1.27;;;27.60;28.80;;;;;;5125637;27;45288;-70
2022/08/11 02:28:27;;;;;;;2.08;1.13;;;27.50;28.80;;;;;;5128300;27;45138;-70
2022/08/11 02:33:41;;;;;;;1.58;1.20;;;27.50;28.90;;;;;;5126611;27;46271;-70
2022/08/11 02:36:10;;;;;;;1.45;1.33;;;27.50;28.80;;;;;;5127693;27;45236;-70
2022/08/11 02:38:44;;;;;;;1.17;1.08;;;27.50;28.90;;;;;;5128217;27;45201;-70
2022/08/11 02:44:06;;;;;;;1.35;1.15;;;27.40;29.10;;;;;;5127433;27;45945;-70
2022/08/11 02:46:38;;;;;;;1.45;1.25;;;27.40;28.90;;;;;;5128009;27;45128;-70
2022/08/11 02:52:05;;;;;;;0.98;0.98;;;27.40;29.00;;;;;;5118884;27;45194;-70
2022/08/11 02:54:38;;;;;;;1.45;1.13;;;27.40;29.10;;;;;;5106982;27;45479;-70
2022/08/11 02:57:09;;;;;;;1.13;1.10;;;27.40;29.10;;;;;;5107101;27;45171;-70
2022/08/11 02:59:50;;;;;;;1.08;0.98;;;27.30;29.10;;;;;;5107383;27;45237;-70
2022/08/11 03:02:40;;;;;;;1.38;1.20;;;27.30;29.10;;;;;;5107358;27;45254;-70
2022/08/11 03:05:16;;;;;;;1.02;1.02;;;27.30;29.10;;;;;;5098677;27;46371;-71
2022/08/11 03:07:51;;;;;;;1.13;1.13;;;27.30;29.10;;;;;;5106971;27;45216;-70
2022/08/11 03:10:22;;;;;;;1.00;1.00;;;27.30;29.20;;;;;;5106986;27;45165;-70
2022/08/11 03:18:31;;;;;;;1.58;1.20;;;27.20;29.20;;;;;;5107123;27;45501;-70
2022/08/11 03:21:02;;;;;;;2.17;1.42;;;27.20;29.30;;;;;;5107079;27;45140;-70
2022/08/11 03:23:31;;;;;;;1.10;1.10;;;27.20;29.20;;;;;;5106977;27;45301;-70
2022/08/11 03:26:02;;;;;;;1.30;1.17;;;27.20;29.40;;;;;;5106809;27;47564;-70
2022/08/11 03:28:31;;;;;;;1.33;1.23;;;27.20;29.30;;;;;;5106733;27;45327;-70
2022/08/11 03:31:06;;;;;;;1.98;1.27;;;27.20;29.30;;;;;;5123418;27;45188;-70
2022/08/11 03:36:46;;;;;;;2.78;1.10;;;27.10;29.50;;;;;;5125362;27;45311;-70
2022/08/11 03:39:16;;;;;;;1.45;1.38;;;27.10;29.40;;;;;;5127255;27;45220;-71
2022/08/11 03:41:52;;;;;;;1.85;1.20;;;27.10;29.60;;;;;;5127357;27;45259;-70
2022/08/11 03:44:24;;;;;;;1.25;1.10;;;27.10;29.60;;;;;;5129213;27;45346;-71
2022/08/11 03:47:10;;;;;;;1.38;1.27;;;27.00;29.70;;;;;;5130517;27;46251;-70
2022/08/11 03:49:44;;;;;;;1.30;1.20;;;27.10;29.70;;;;;;5130794;27;45180;-70
2022/08/11 03:52:16;;;;;;;1.60;1.30;;;27.00;29.70;;;;;;5118730;27;45134;-70
2022/08/11 03:54:49;;;;;;;2.20;1.20;;;27.00;29.70;;;;;;5110352;27;45286;-70
2022/08/11 03:58:06;;;;;;;1.85;1.30;;;27.00;29.80;;;;;;5109860;27;45465;-70
2022/08/11 04:00:45;;;;;;;1.63;1.13;;;26.90;29.80;;;;;;5046447;28;45223;-70
2022/08/11 04:03:40;;;;;;;1.42;1.23;;;26.90;29.80;;;;;;5099934;27;45317;-70
2022/08/11 04:06:49;;;;;;;3.33;1.52;;;26.90;29.90;;;;;;5096323;27;45587;-70
2022/08/11 04:09:47;;;;;;;1.98;1.30;;;26.90;29.90;;;;;;5093749;27;47368;-70
2022/08/11 04:12:52;;;;;;;1.50;1.40;;;26.90;29.90;;;;;;5109627;27;45204;-71
2022/08/11 04:18:58;;;;;;;2.40;1.67;;;26.90;30.00;;;;;;5107275;27;45374;-70
2022/08/11 04:22:11;;;;;;;1.63;1.17;;;26.80;30.00;;;;;;5109548;27;47261;-70
2022/08/11 04:25:02;;;;;;;1.38;1.27;;;26.80;30.00;;;;;;5109382;27;45161;-70
2022/08/11 04:28:07;;;;;;;1.73;1.33;;;26.80;30.10;;;;;;5106277;27;45156;-71
2022/08/11 04:30:42;;;;;;;1.35;1.25;;;26.70;30.10;;;;;;5122900;27;45266;-71
2022/08/11 04:33:40;;;;;;;1.05;1.05;;;26.70;30.10;;;;;;5129608;27;46416;-70
2022/08/11 04:36:17;;;;;;;1.50;1.10;;;26.80;30.30;;;;;;5115009;27;45414;-70
2022/08/11 04:38:59;;;;;;;1.40;1.30;;;26.80;30.30;;;;;;5129999;27;45160;-70
2022/08/11 04:45:20;;;;;;;1.48;1.38;;;26.70;30.50;;;;;;5119557;27;46411;-70
2022/08/11 05:03:04;;;;;;;2.50;1.50;;;26.60;30.80;;;;;;5109184;27;45334;-70
2022/08/11 05:05:48;;;;;;;2.63;1.63;;;26.50;30.80;;;;;;5109086;27;45278;-70
2022/08/11 05:08:34;;;;;;;1.50;1.40;;;26.60;31.00;;;;;;5108669;27;45308;-71
2022/08/11 05:11:11;;;;;;;2.00;1.30;;;26.60;30.90;;;;;;5108766;27;45302;-70
2022/08/11 05:35:49;;;;;;;1.40;1.30;;;26.50;31.00;;;;;;5126815;27;45253;-70
2022/08/11 05:57:37;;;;;;;1.92;1.35;;;26.50;31.20;;;;;;5108289;27;45412;-71
2022/08/11 06:00:09;;;;;;;1.58;1.48;;;26.50;31.50;;;;;;5108273;27;45305;-71
2022/08/11 06:02:40;;;;;;;1.45;1.35;;;26.40;31.50;;;;;;5107566;27;46879;-71
2022/08/11 06:05:08;;;;;;;2.22;1.50;;;26.40;31.60;;;;;;5107901;27;45145;-71
2022/08/11 06:07:34;;;;;;;1.70;1.60;;;26.40;31.50;;;;;;5107675;27;45433;-70
2022/08/11 06:10:03;;;;;;;2.80;1.77;;;26.40;31.50;;;;;;5108130;27;45437;-70
2022/08/11 06:12:31;;;;;;;1.48;1.38;;;26.50;31.70;;;;;;5107822;27;46730;-70
2022/08/11 06:15:04;;;;;;;1.58;1.38;;;26.50;31.90;;;;;;5107611;27;45257;-70
2022/08/11 06:17:32;;;;;;;1.75;1.65;;;26.50;31.70;;;;;;5107776;27;45207;-71
2022/08/11 06:19:59;;;;;;;2.90;1.38;;;26.40;31.70;;;;;;5107970;27;45160;-70
2022/08/11 06:22:26;;;;;;;2.08;1.60;;;26.40;31.60;;;;;;5107509;27;46292;-70
2022/08/11 06:24:57;;;;;;;1.85;1.75;;;26.40;31.60;;;;;;5107399;27;45337;-71
2022/08/11 06:27:26;;;;;;;4.40;1.70;;;26.50;31.80;;;;;;5107640;27;45192;-71
2022/08/11 06:29:53;;;;;;;5.40;1.60;;;26.50;31.90;;;;;;5115252;27;45288;-71
2022/08/11 06:32:20;;;;;;;1.52;1.30;;;26.50;32.00;;;;;;5128057;27;45256;-71
2022/08/11 06:35:04;;;;;;;7.47;1.77;;;26.50;31.90;;;;;;5128018;27;45121;-71
2022/08/11 06:37:42;;;;;;;3.13;1.55;;;26.50;32.00;;;;;;5127100;27;45431;-71
2022/08/11 06:40:10;;;;;;;3.42;1.75;;;26.50;31.90;;;;;;5128361;27;45458;-71
2022/08/11 06:42:47;;;;;;;4.68;1.65;;;26.50;32.00;;;;;;5127476;27;46403;-71
2022/08/11 06:45:21;;;;;;;4.07;1.50;;;26.50;32.10;;;;;;5127581;27;45255;-70
2022/08/11 06:47:48;;;;;;;4.15;1.58;;;26.50;32.20;;;;;;5127811;27;45428;-71
2022/08/11 06:53:01;;;;;;;3.83;1.80;;;26.50;32.40;;;;;;5108376;27;45974;-71
2022/08/11 07:00:58;;;;;;;2.00;1.50;;;26.50;32.40;;;;;;5107448;27;45209;-71
2022/08/11 07:03:24;;;;;;;5.88;1.70;;;26.50;32.60;;;;;;5106527;27;46390;-71
2022/08/11 07:05:53;;;;;;;2.65;1.60;;;26.50;32.50;;;;;;5106923;27;45292;-71
2022/08/11 07:17:37;;;;;;;1.60;1.50;;;26.60;32.60;;;;;;5107063;27;45384;-71
2022/08/11 07:31:12;;;;;;;2.08;1.65;;;26.60;32.70;;;;;;5120567;27;45441;-72
2022/08/11 07:33:41;;;;;;;2.53;1.50;;;26.60;32.80;;;;;;5131287;27;45412;-72
2022/08/11 07:36:11;;;;;;;3.28;1.60;;;26.60;32.70;;;;;;5130450;27;46848;-71
2022/08/11 07:38:43;;;;;;;2.00;1.48;;;26.70;32.70;;;;;;5130504;27;45316;-71
2022/08/11 07:41:10;;;;;;;1.20;1.20;;;26.70;32.80;;;;;;5131048;27;45424;-72
2022/08/11 07:43:37;;;;;;;1.98;1.50;;;26.70;32.70;;;;;;5131195;27;45406;-72
2022/08/11 07:54:18;;;;;;;2.80;1.63;;;26.80;32.50;;;;;;5125502;27;45253;-72
2022/08/11 07:56:44;;;;;;;1.38;1.27;;;26.90;32.70;;;;;;5127358;27;45210;-72
2022/08/11 08:18:23;;;;;;;2.10;1.50;;;27.10;33.00;;;;;;5108861;27;45839;-72
2022/08/11 08:20:53;;;;;;;1.65;1.52;;;27.10;33.00;;;;;;5128777;27;45466;-71
2022/08/11 08:23:31;;;;;;;2.20;1.40;;;27.20;33.00;;;;;;5129679;27;45294;-72
2022/08/11 08:26:00;;;;;;;2.45;1.40;;;27.20;33.70;;;;;;5128700;27;45187;-71
2022/08/11 08:28:27;;;;;;;2.05;1.60;;;27.30;33.10;;;;;;5129674;27;45430;-72
2022/08/11 08:30:55;;;;;;;1.63;1.52;;;27.30;33.20;;;;;;5127175;27;45497;-72
2022/08/11 08:33:23;;;;;;;1.50;1.40;;;27.30;33.20;;;;;;5129925;27;45285;-72
2022/08/11 08:36:10;;;;;;;2.88;1.23;;;27.40;33.80;;;;;;5126942;27;45271;-72
2022/08/11 08:38:37;;;;;;;2.90;1.33;;;27.40;33.80;;;;;;5116773;27;46619;-72
2022/08/11 08:41:04;;;;;;;2.20;1.60;;;27.40;33.70;;;;;;5127189;27;45339;-72
2022/08/11 08:43:31;;;;;;;2.90;1.67;;;27.50;33.90;;;;;;5121145;27;45138;-72
2022/08/11 08:45:58;;;;;;;1.60;1.50;;;27.50;33.90;;;;;;5129160;27;45415;-72
2022/08/11 08:48:25;;;;;;;3.05;1.73;;;27.50;34.00;;;;;;5127388;27;46790;-72
2022/08/11 08:53:43;;;;;;;4.15;1.40;;;27.60;33.80;;;;;;5106562;27;45247;-72
2022/08/11 08:56:10;;;;;;;3.28;1.60;;;27.60;34.10;;;;;;5109298;27;45301;-73
2022/08/11 08:58:37;;;;;;;4.10;1.77;;;27.60;34.10;;;;;;5106220;27;45430;-72
2022/08/11 09:01:04;;;;;;;3.03;1.50;;;27.60;34.00;;;;;;5108928;27;45342;-73
2022/08/11 09:03:32;;;;;;;3.33;1.48;;;27.70;34.00;;;;;;5109294;27;45285;-72
2022/08/11 09:06:00;;;;;;;1.40;1.30;;;27.70;33.80;;;;;;5109841;27;45207;-72
2022/08/11 09:08:28;;;;;;;2.72;1.50;;;27.70;33.40;;;;;;5109175;27;45298;-72
2022/08/11 09:13:36;;;;;;;2.85;1.67;;;27.70;33.30;;;;;;5108661;27;45326;-72
2022/08/11 09:16:03;;;;;;;1.77;1.50;;;27.80;33.30;;;;;;5109171;27;45306;-72
2022/08/11 09:18:31;;;;;;;2.42;1.77;;;27.70;33.10;;;;;;5108776;27;46343;-72
2022/08/11 09:20:58;;;;;;;1.90;1.75;;;27.80;33.00;;;;;;5108809;27;45180;-72
2022/08/11 09:28:54;;;;;;;1.60;1.50;;;27.90;32.60;;;;;;5106182;27;45884;-72
2022/08/11 09:31:21;;;;;;;4.70;1.60;;;27.90;32.10;;;;;;5128736;27;45414;-72
2022/08/11 09:33:48;;;;;;;1.60;1.50;;;27.90;32.20;;;;;;5129585;27;45400;-72
2022/08/11 09:41:45;;;;;;;1.77;1.67;;;28.10;32.30;;;;;;5128829;27;45365;-72
2022/08/11 09:46:58;;;;;;;7.18;1.73;;;28.10;31.80;;;;;;5126525;27;45255;-72
2022/08/11 09:49:24;;;;;;;2.47;1.45;;;28.10;31.70;;;;;;5127636;27;45414;-72
2022/08/11 09:51:51;;;;;;;1.40;1.30;;;28.20;31.70;;;;;;5118527;27;45449;-71
2022/08/11 09:54:21;;;;;;;2.38;1.52;;;28.20;31.70;;;;;;5107939;27;45322;-72
2022/08/11 09:59:33;;;;;;;2.03;1.50;;;28.30;31.50;;;;;;5104709;27;45188;-71
2022/08/11 10:02:01;;;;;;;2.55;1.40;;;28.30;31.40;;;;;;5108073;27;45205;-73
2022/08/11 10:04:33;;;;;;;2.17;1.40;;;28.30;31.20;;;;;;5108046;27;45288;-72
2022/08/11 10:07:03;;;;;;;1.48;1.38;;;28.40;31.00;;;;;;5108534;27;45408;-72
2022/08/11 10:09:36;;;;;;;2.63;1.73;;;28.40;31.00;;;;;;5105350;27;46718;-72
2022/08/11 10:12:03;;;;;;;1.40;1.30;;;28.40;30.70;;;;;;5107498;27;45342;-72
2022/08/11 10:17:15;;;;;;;2.03;1.50;;;28.50;30.60;;;;;;5108261;27;45284;-72
2022/08/11 10:19:42;;;;;;;1.50;1.40;;;28.50;30.70;;;;;;5107826;27;46336;-72
2022/08/11 10:27:39;;;;;;;2.63;1.75;;;28.70;30.50;;;;;;5105298;27;45199;-72
2022/08/11 10:35:35;;;;;;;1.60;1.50;;;28.80;30.30;;;;;;5128192;27;45311;-72
2022/08/11 10:38:03;;;;;;;1.40;1.30;;;28.90;30.50;;;;;;5128405;27;45288;-72
2022/08/11 10:40:31;;;;;;;3.13;1.60;;;29.00;31.30;;;;;;5127736;27;47291;-71
2022/08/11 10:43:02;;;;;;;4.10;1.30;;;29.00;30.40;;;;;;5127694;27;45306;-71
2022/08/11 10:48:14;;;;;;;3.13;1.48;;;29.10;30.10;;;;;;5125450;27;45287;-72
2022/08/11 10:58:55;;;;;;;2.97;1.33;;;29.40;29.90;;;;;;5104497;27;45321;-71
2022/08/11 11:01:23;;;;;;;1.85;1.50;;;29.50;29.90;;;;;;5106797;27;46408;-71
2022/08/11 11:03:52;;;;;;;3.38;1.60;;;29.50;29.00;;;;;;5106749;27;45154;-71
2022/08/11 11:06:24;;;;;;;1.90;1.20;;;29.60;29.00;;;;;;5107013;27;45433;-70
2022/08/11 11:08:53;;;;;;;3.13;1.60;;;29.60;29.00;;;;;;5125774;27;45469;-71
2022/08/11 11:11:21;;;;;;;1.40;1.30;;;29.70;28.70;;;;;;5127414;27;45330;-71
2022/08/11 11:19:25;;;;;;;2.63;1.50;;;29.90;28.70;;;;;;5069068;27;45378;-71
2022/08/11 11:22:36;;;;;;;1.90;1.30;;;29.90;28.60;;;;;;5127587;27;46584;-71
2022/08/11 11:24:42;;;;;;;1.73;1.40;;;30.00;28.50;;;;;;5127214;27;45266;-71
2022/08/11 11:27:14;;;;;;;2.25;1.40;;;30.10;28.50;;;;;;5127442;27;45309;-71
2022/08/11 11:29:54;;;;;;;1.63;1.42;;;30.20;28.20;;;;;;5127641;27;45485;-71
2022/08/11 11:32:25;;;;;;;1.90;1.40;;;30.20;28.30;;;;;;5126947;27;45631;-71
2022/08/11 11:35:04;;;;;;;1.50;1.40;;;30.30;27.60;;;;;;5127198;27;45520;-70
2022/08/11 11:37:32;;;;;;;2.25;1.50;;;30.30;27.70;;;;;;5126892;27;45292;-70
2022/08/11 11:39:59;;;;;;;1.85;1.45;;;30.40;27.80;;;;;;5127548;27;45220;-71
2022/08/11 11:42:27;;;;;;;1.50;1.35;;;30.50;27.80;;;;;;5127167;27;47300;-71
2022/08/11 11:44:54;;;;;;;1.38;1.27;;;30.60;27.90;;;;;;5127037;27;45345;-70
2022/08/11 11:47:21;;;;;;;2.17;1.38;;;30.70;27.60;;;;;;5127465;27;45419;-70
2022/08/11 11:49:48;;;;;;;1.52;1.20;;;30.80;27.50;;;;;;5127291;27;45406;-71
2022/08/11 11:52:17;;;;;;;4.40;1.70;;;30.80;27.70;;;;;;5114573;27;45415;-71
2022/08/11 11:54:44;;;;;;;1.50;1.40;;;30.90;27.40;;;;;;5106491;27;45362;-71
2022/08/11 12:02:41;;;;;;;1.40;1.27;;;31.10;26.70;;;;;;5106694;27;45306;-71
2022/08/11 12:05:09;;;;;;;2.90;1.50;;;31.20;26.80;;;;;;5107539;27;45438;-71
2022/08/11 12:10:20;;;;;;;1.58;1.27;;;31.30;26.70;;;;;;5110326;27;45203;-70
2022/08/11 12:15:33;;;;;;;2.42;1.40;;;31.40;26.20;;;;;;5106930;27;45271;-70
2022/08/11 12:17:59;;;;;;;1.33;1.33;;;31.40;26.30;;;;;;5110098;27;45278;-71
2022/08/11 12:20:26;;;;;;;2.58;1.35;;;31.50;26.10;;;;;;5109920;27;45261;-71
2022/08/11 12:28:27;;;;;;;1.35;1.27;;;31.70;25.70;;;;;;5110018;27;45350;-71
2022/08/11 12:30:56;;;;;;;2.03;1.30;;;31.70;25.70;;;;;;5126240;27;45287;-71
2022/08/11 12:33:23;;;;;;;1.48;1.17;;;31.80;25.90;;;;;;5130069;27;46375;-71
2022/08/11 12:35:58;;;;;;;2.00;1.40;;;31.80;25.70;;;;;;5128517;27;45216;-71
2022/08/11 12:38:25;;;;;;;1.67;1.30;;;31.90;25.60;;;;;;5129968;27;45117;-71
2022/08/11 12:46:22;;;;;;;3.55;1.38;;;32.10;25.50;;;;;;5126870;27;45310;-71
2022/08/11 12:51:57;;;;;;;1.40;1.40;;;32.20;25.00;;;;;;5123203;27;45302;-71
2022/08/11 12:54:26;;;;;;;1.58;1.40;;;32.30;25.20;;;;;;5109004;27;45713;-71
2022/08/11 13:05:12;;;;;;;1.95;1.38;;;32.50;25.00;;;;;;5108776;27;45923;-70
2022/08/11 13:07:39;;;;;;;1.40;1.30;;;32.50;24.70;;;;;;5108734;27;45163;-70
2022/08/11 13:10:08;;;;;;;1.95;1.20;;;32.60;24.90;;;;;;5109018;27;44709;-70
2022/08/11 13:12:49;;;;;;;1.33;1.30;;;32.60;24.50;;;;;;5108990;27;45293;-71
2022/08/11 13:15:17;;;;;;;1.42;1.35;;;32.70;24.50;;;;;;5108174;27;46922;-70
2022/08/11 13:17:46;;;;;;;1.42;1.23;;;32.80;24.80;;;;;;5107811;27;45391;-70
2022/08/11 13:20:13;;;;;;;2.08;1.40;;;32.90;24.60;;;;;;5108450;27;45213;-71
2022/08/11 13:22:44;;;;;;;3.08;1.45;;;33.00;24.20;;;;;;5108960;27;45378;-70
2022/08/11 13:25:11;;;;;;;3.17;1.50;;;33.00;24.30;;;;;;5107843;27;46809;-70
2022/08/11 13:27:38;;;;;;;2.88;1.15;;;33.10;24.20;;;;;;5108688;27;45381;-70
2022/08/11 13:32:52;;;;;;;1.73;1.60;;;33.20;24.20;;;;;;5129959;27;45177;-70
2022/08/11 13:35:19;;;;;;;2.17;1.30;;;33.20;23.80;;;;;;5128667;27;46388;-71
2022/08/11 13:37:46;;;;;;;3.38;1.33;;;33.20;23.80;;;;;;5126179;27;45275;-70
2022/08/11 13:40:13;;;;;;;1.63;1.52;;;33.30;23.80;;;;;;5129142;27;45286;-70
2022/08/11 13:42:40;;;;;;;1.52;1.30;;;33.40;23.80;;;;;;5129486;27;45359;-71
2022/08/11 13:45:08;;;;;;;1.40;1.30;;;33.50;23.80;;;;;;5128466;27;48599;-70
2022/08/11 13:47:35;;;;;;;1.40;1.30;;;33.60;23.80;;;;;;5128364;27;45684;-70
2022/08/11 13:50:03;;;;;;;2.53;1.52;;;33.60;24.00;;;;;;5128877;27;45305;-71
2022/08/11 13:52:31;;;;;;;1.83;1.33;;;33.70;23.30;;;;;;5114382;27;45203;-70
2022/08/11 13:54:58;;;;;;;1.40;1.30;;;33.60;23.10;;;;;;5107804;27;46885;-71
2022/08/11 13:57:25;;;;;;;1.80;1.20;;;33.70;23.20;;;;;;5116984;27;45286;-71
2022/08/11 13:59:53;;;;;;;1.27;1.23;;;33.70;23.00;;;;;;5128965;27;45255;-70
2022/08/11 14:02:23;;;;;;;1.50;1.40;;;33.80;23.30;;;;;;5129053;27;45168;-70
2022/08/11 14:04:52;;;;;;;1.90;1.23;;;33.80;23.10;;;;;;5128629;27;45370;-70
2022/08/11 14:07:22;;;;;;;3.38;1.35;;;33.80;22.90;;;;;;5128858;27;45280;-70
2022/08/11 14:09:49;;;;;;;1.40;1.30;;;33.80;23.30;;;;;;5128702;27;45336;-70
2022/08/11 14:15:07;;;;;;;1.20;1.10;;;33.90;22.90;;;;;;5128782;27;45261;-71
2022/08/11 14:17:34;;;;;;;2.45;1.30;;;34.00;22.70;;;;;;5107828;27;45343;-71
2022/08/11 14:20:03;;;;;;;2.17;1.20;;;34.00;22.80;;;;;;5107884;27;45398;-70
2022/08/11 14:22:31;;;;;;;2.47;1.20;;;33.90;22.60;;;;;;5105623;27;45210;-69
2022/08/11 14:24:58;;;;;;;2.83;1.40;;;33.90;22.50;;;;;;5107569;27;45225;-71
2022/08/11 14:27:29;;;;;;;1.40;1.30;;;34.00;22.70;;;;;;5107437;27;45901;-70
2022/08/11 14:29:56;;;;;;;1.50;1.30;;;34.10;22.70;;;;;;5115801;27;45288;-71
2022/08/11 14:32:23;;;;;;;1.33;1.23;;;34.10;22.70;;;;;;5128664;27;45344;-71
2022/08/11 14:34:50;;;;;;;1.42;1.33;;;34.10;22.40;;;;;;5128150;27;46768;-70
2022/08/11 14:37:20;;;;;;;1.08;1.08;;;33.90;22.10;;;;;;5128204;27;45341;-72
2022/08/11 14:39:50;;;;;;;1.95;1.02;;;33.80;22.50;;;;;;5128880;27;45152;-71
2022/08/11 14:48:04;;;;;;;2.17;1.20;;;33.70;22.70;;;;;;5085364;28;45279;-70
2022/08/11 14:50:32;;;;;;;3.83;1.30;;;33.70;22.50;;;;;;5085102;28;45464;-72
2022/08/11 14:52:59;;;;;;;2.47;1.35;;;33.60;22.50;;;;;;5104503;27;45217;-72
2022/08/11 14:58:17;;;;;;;1.67;1.40;;;33.50;22.30;;;;;;5128709;27;45361;-72
2022/08/11 15:00:44;;;;;;;1.77;1.40;;;33.50;22.30;;;;;;5127304;27;45263;-70
2022/08/11 15:03:11;;;;;;;2.08;1.40;;;33.40;22.30;;;;;;5127056;27;45246;-71
2022/08/11 15:05:39;;;;;;;1.30;1.30;;;33.40;22.20;;;;;;5128093;27;47671;-72
2022/08/11 15:08:06;;;;;;;1.73;1.20;;;33.40;22.50;;;;;;5128176;27;45299;-70
2022/08/11 15:10:35;;;;;;;1.40;1.30;;;33.40;22.20;;;;;;5127773;27;45430;-69
2022/08/11 15:13:02;;;;;;;1.65;1.10;;;33.40;22.10;;;;;;5127638;27;45102;-72
2022/08/11 15:18:15;;;;;;;1.00;1.00;;;33.30;21.90;;;;;;5124807;27;45551;-72
2022/08/11 15:26:13;;;;;;;1.48;1.30;;;33.20;22.30;;;;;;5127850;27;45817;-72
2022/08/11 15:48:09;;;;;;;1.60;1.50;;;33.20;22.40;;;;;;5127413;27;45831;-71
2022/08/11 15:50:48;;;;;;;1.35;1.20;;;33.20;22.60;;;;;;5131247;27;45353;-71
2022/08/11 15:53:27;;;;;;;1.40;1.30;;;33.20;22.40;;;;;;5113771;27;45328;-71
2022/08/11 15:55:54;;;;;;;1.00;1.00;;;33.10;22.40;;;;;;5117037;27;45495;-72
2022/08/11 16:06:40;;;;;;;1.50;1.30;;;33.10;22.50;;;;;;5131017;27;45336;-71
2022/08/11 16:09:07;;;;;;;1.60;1.38;;;33.00;22.50;;;;;;5129033;27;46392;-71
2022/08/11 16:11:34;;;;;;;1.67;1.58;;;33.00;22.50;;;;;;5127885;27;45269;-71
2022/08/11 16:16:47;;;;;;;1.83;1.55;;;33.10;22.60;;;;;;5128153;27;45313;-71
2022/08/11 16:19:14;;;;;;;3.15;1.40;;;33.00;22.50;;;;;;5130465;27;48334;-71
2022/08/11 16:21:42;;;;;;;2.97;1.70;;;33.00;22.50;;;;;;5130306;27;45240;-71
2022/08/11 16:24:10;;;;;;;3.90;1.50;;;33.00;22.60;;;;;;5130957;27;45188;-71
2022/08/11 16:26:39;;;;;;;2.08;1.40;;;32.90;22.70;;;;;;5130114;27;45401;-71
2022/08/11 16:29:07;;;;;;;3.65;1.33;;;33.00;22.80;;;;;;5130245;27;45488;-71
2022/08/11 16:31:34;;;;;;;2.15;1.25;;;33.00;22.80;;;;;;5130193;27;45162;-71
2022/08/11 16:34:01;;;;;;;3.13;1.45;;;33.00;22.80;;;;;;5130492;27;45258;-71
2022/08/11 16:39:17;;;;;;;2.03;1.40;;;32.90;22.80;;;;;;5127436;27;45817;-73
2022/08/11 16:47:16;;;;;;;1.50;1.40;;;32.90;23.10;;;;;;5121673;27;45429;-72
2022/08/11 16:49:45;;;;;;;2.33;1.38;;;32.90;23.00;;;;;;5119238;27;45270;-72
2022/08/11 16:52:12;;;;;;;2.65;1.50;;;32.90;23.10;;;;;;5126897;27;45182;-71
2022/08/11 16:54:40;;;;;;;3.47;1.60;;;32.90;23.10;;;;;;5128980;27;45456;-71
2022/08/11 16:59:55;;;;;;;1.45;1.35;;;32.90;23.20;;;;;;5122822;27;45532;-70
2022/08/11 17:13:29;;;;;;;2.83;1.40;;;33.20;23.40;;;;;;5109344;27;45494;-71
2022/08/11 17:16:10;;;;;;;1.50;1.40;;;33.30;23.40;;;;;;5119786;27;45251;-71
2022/08/11 17:18:44;;;;;;;3.45;1.63;;;33.30;23.40;;;;;;5125954;27;45424;-74
2022/08/11 17:21:19;;;;;;;3.03;1.65;;;33.40;23.70;;;;;;5116954;27;48368;-73
2022/08/11 17:23:48;;;;;;;3.55;1.50;;;33.40;23.40;;;;;;5117178;27;45450;-72
2022/08/11 17:26:21;;;;;;;2.72;1.40;;;33.40;23.40;;;;;;5122019;27;45184;-72
2022/08/11 17:28:50;;;;;;;2.10;1.70;;;33.40;23.50;;;;;;5120725;27;45568;-71
2022/08/11 17:36:50;;;;;;;2.28;1.40;;;33.50;23.60;;;;;;5119758;27;45464;-70
2022/08/11 17:39:16;;;;;;;2.78;1.60;;;33.50;23.50;;;;;;5125791;27;45659;-72
2022/08/11 17:49:58;;;;;;;1.45;1.35;;;33.30;23.70;;;;;;5112616;27;45893;-70
2022/08/11 18:00:38;;;;;;;3.88;1.88;;;33.10;23.80;;;;;;5118145;27;45591;-71
2022/08/11 18:05:50;;;;;;;5.05;2.10;;;33.00;23.90;;;;;;5128208;27;45447;-71
